Time;durP1;ratioP1;P1;durP2;ratioP2;P2;SDS_P1;SDS_P2;PMS_P1;PMS_P2;Temp;Humidity;BMP_temperature;BMP_pressure;BME280_temperature;BME280_humidity;BME280_pressure;Samples;Min_cycle;Max_cycle;Signal;HPM_P1;HPM_P2
2022/11/10 00:01:52;;;;;;;12.40;5.18;;;9.60;99.90;;;;;;4882295;28;88280;-31
2022/11/10 00:04:18;;;;;;;20.73;6.65;;;9.60;99.90;;;;;;4882559;28;89818;-32
2022/11/10 00:06:46;;;;;;;13.60;6.25;;;9.60;99.90;;;;;;4882017;28;88000;-32
2022/11/10 00:09:11;;;;;;;16.23;6.45;;;9.60;99.90;;;;;;4881837;28;90032;-32
2022/11/10 00:11:37;;;;;;;17.13;7.95;;;9.60;99.90;;;;;;4882393;28;89472;-32
2022/11/10 00:16:59;;;;;;;20.98;7.90;;;9.50;99.90;;;;;;4882138;28;88243;-32
2022/11/10 00:19:34;;;;;;;11.13;6.82;;;9.50;99.90;;;;;;4882438;28;90387;-31
2022/11/10 00:22:01;;;;;;;18.67;6.80;;;9.40;99.90;;;;;;4882311;28;89563;-32
2022/11/10 00:24:28;;;;;;;17.95;8.13;;;9.40;99.90;;;;;;4882729;28;89544;-31
2022/11/10 00:26:54;;;;;;;16.00;7.15;;;9.40;99.90;;;;;;4881144;28;87928;-32
2022/11/10 00:29:21;;;;;;;12.00;7.65;;;9.40;99.90;;;;;;4882621;28;90755;-30
2022/11/10 00:31:46;;;;;;;14.35;7.40;;;9.40;99.90;;;;;;4881912;28;91801;-32
2022/11/10 00:34:15;;;;;;;15.93;7.13;;;9.30;99.90;;;;;;4882150;28;90275;-32
2022/11/10 00:36:41;;;;;;;17.73;7.97;;;9.40;99.90;;;;;;4882806;28;88646;-32
2022/11/10 00:39:07;;;;;;;16.13;7.55;;;9.40;99.90;;;;;;4882629;28;90107;-33
2022/11/10 00:41:32;;;;;;;14.73;7.30;;;9.30;99.90;;;;;;4881484;28;89729;-32
2022/11/10 00:43:58;;;;;;;21.55;8.43;;;9.40;99.90;;;;;;4882170;28;89388;-33
2022/11/10 00:46:23;;;;;;;14.27;8.13;;;9.40;99.90;;;;;;4881871;28;89512;-31
2022/11/10 00:48:49;;;;;;;21.17;9.13;;;9.40;99.90;;;;;;4881509;28;89094;-32
2022/11/10 00:51:28;;;;;;;17.90;8.68;;;9.30;99.90;;;;;;4881572;28;89974;-33
2022/11/10 00:53:54;;;;;;;19.75;8.63;;;9.30;99.90;;;;;;4881485;28;90714;-32
2022/11/10 00:56:21;;;;;;;19.80;9.35;;;9.30;99.90;;;;;;4882069;28;89388;-31
2022/11/10 00:58:46;;;;;;;13.02;8.55;;;9.30;99.90;;;;;;4882083;28;90293;-32
2022/11/10 01:01:14;;;;;;;18.55;9.43;;;9.30;99.90;;;;;;4881492;28;89738;-33
2022/11/10 01:03:40;;;;;;;18.90;8.63;;;9.30;99.90;;;;;;4881597;28;90084;-36
2022/11/10 01:06:07;;;;;;;16.73;7.80;;;9.30;99.90;;;;;;4882528;28;89738;-32
2022/11/10 01:08:33;;;;;;;16.40;9.10;;;9.20;99.90;;;;;;4881799;28;91512;-32
2022/11/10 01:11:08;;;;;;;21.35;9.18;;;9.30;99.90;;;;;;4881757;28;89471;-32
2022/11/10 01:13:35;;;;;;;12.35;7.95;;;9.20;99.90;;;;;;4882652;28;89855;-32
2022/11/10 01:16:09;;;;;;;15.98;7.82;;;9.20;99.90;;;;;;4881715;28;88660;-32
2022/11/10 01:18:35;;;;;;;20.85;9.10;;;9.10;99.90;;;;;;4881885;28;90746;-31
2022/11/10 01:21:01;;;;;;;18.50;10.38;;;9.10;99.90;;;;;;4878933;28;90472;-33
2022/11/10 01:23:27;;;;;;;14.90;8.77;;;9.10;99.90;;;;;;4880961;28;91192;-31
2022/11/10 01:26:04;;;;;;;31.27;8.60;;;9.10;99.90;;;;;;4881749;28;88394;-31
2022/11/10 01:28:32;;;;;;;23.92;10.32;;;9.10;99.90;;;;;;4881639;28;90351;-31
2022/11/10 01:31:02;;;;;;;24.98;10.93;;;9.00;99.90;;;;;;4880020;28;89368;-30
2022/11/10 01:33:27;;;;;;;21.88;9.32;;;9.10;99.90;;;;;;4880808;28;89566;-32
2022/11/10 01:35:53;;;;;;;17.85;9.38;;;9.10;99.90;;;;;;4881578;28;88875;-32
2022/11/10 01:38:19;;;;;;;16.92;8.65;;;9.10;99.90;;;;;;4881295;28;89990;-33
2022/11/10 01:40:45;;;;;;;17.98;8.95;;;9.10;99.90;;;;;;4884021;28;89420;-32
2022/11/10 01:43:11;;;;;;;17.05;10.38;;;9.10;99.90;;;;;;4884551;28;89913;-32
2022/11/10 01:45:59;;;;;;;23.10;9.35;;;9.10;99.90;;;;;;4883817;28;88960;-32
2022/11/10 01:48:48;;;;;;;17.07;9.40;;;9.10;99.90;;;;;;4884726;28;90489;-30
2022/11/10 01:51:19;;;;;;;21.02;10.65;;;9.10;99.90;;;;;;4884100;28;89941;-32
2022/11/10 01:53:49;;;;;;;26.95;10.00;;;9.10;99.90;;;;;;4884023;28;89550;-31
2022/11/10 01:56:15;;;;;;;14.27;8.15;;;9.10;99.90;;;;;;4884198;28;89851;-31
2022/11/10 01:58:48;;;;;;;17.75;9.70;;;9.10;99.90;;;;;;4882621;28;90218;-32
2022/11/10 02:01:14;;;;;;;17.60;9.20;;;9.10;99.90;;;;;;4884571;28;89531;-31
2022/11/10 02:03:58;;;;;;;14.15;9.73;;;9.10;99.90;;;;;;4883940;28;90038;-34
2022/11/10 02:06:32;;;;;;;21.10;7.82;;;9.10;99.90;;;;;;4884528;28;88014;-31
2022/11/10 02:08:58;;;;;;;21.70;9.93;;;9.00;99.90;;;;;;4884063;28;90243;-33
2022/11/10 02:11:25;;;;;;;14.98;8.98;;;9.10;99.90;;;;;;4884125;28;90620;-33
2022/11/10 02:13:51;;;;;;;15.90;8.55;;;9.10;99.90;;;;;;4883581;28;90030;-33
2022/11/10 02:16:17;;;;;;;14.88;8.75;;;9.00;99.90;;;;;;4884748;28;88943;-31
2022/11/10 02:18:43;;;;;;;21.08;9.18;;;9.00;99.90;;;;;;4883650;28;90196;-33
2022/11/10 02:21:10;;;;;;;23.00;9.93;;;9.00;99.90;;;;;;4884021;28;89660;-32
2022/11/10 02:23:35;;;;;;;17.17;9.60;;;9.00;99.90;;;;;;4884118;28;89597;-32
2022/11/10 02:26:03;;;;;;;17.77;9.13;;;9.00;99.90;;;;;;4883809;28;89142;-32
2022/11/10 02:28:32;;;;;;;20.63;9.30;;;8.90;99.90;;;;;;4884200;28;89371;-32
2022/11/10 02:30:58;;;;;;;22.35;8.90;;;8.90;99.90;;;;;;4882972;28;89818;-32
2022/11/10 02:33:24;;;;;;;29.35;9.32;;;8.90;99.90;;;;;;4884689;28;88748;-31
2022/11/10 02:35:49;;;;;;;19.80;9.65;;;8.90;99.90;;;;;;4883698;28;88499;-30
2022/11/10 02:38:15;;;;;;;16.02;8.55;;;8.90;99.90;;;;;;4883755;28;90423;-32
2022/11/10 02:40:40;;;;;;;16.10;8.23;;;8.80;99.90;;;;;;4883818;28;89685;-32
2022/11/10 02:43:09;;;;;;;18.17;8.75;;;8.90;99.90;;;;;;4883190;28;89483;-31
2022/11/10 02:45:40;;;;;;;13.48;9.18;;;8.90;99.90;;;;;;4884060;28;88792;-32
2022/11/10 02:48:07;;;;;;;14.82;7.93;;;8.90;99.90;;;;;;4883426;28;88856;-32
2022/11/10 02:50:33;;;;;;;21.25;8.60;;;8.90;99.90;;;;;;4883779;28;89962;-33
2022/11/10 02:52:58;;;;;;;18.70;9.73;;;8.80;99.90;;;;;;4883356;28;89204;-33
2022/11/10 02:55:24;;;;;;;17.38;8.27;;;8.90;99.90;;;;;;4883922;28;89399;-33
2022/11/10 02:57:49;;;;;;;26.13;9.25;;;8.90;99.90;;;;;;4883858;28;90460;-31
2022/11/10 03:00:15;;;;;;;21.27;8.45;;;8.90;99.90;;;;;;4882515;28;89361;-32
2022/11/10 03:02:41;;;;;;;18.38;8.63;;;8.90;99.90;;;;;;4883258;28;90905;-33
2022/11/10 03:05:06;;;;;;;22.80;8.63;;;8.90;99.90;;;;;;4883232;28;88658;-31
2022/11/10 03:07:32;;;;;;;22.65;9.93;;;8.90;99.90;;;;;;4882467;28;90262;-33
2022/11/10 03:09:58;;;;;;;18.10;8.98;;;8.90;99.90;;;;;;4882773;28;90046;-32
2022/11/10 03:12:23;;;;;;;29.33;9.90;;;8.90;99.90;;;;;;4883201;28;88132;-34
2022/11/10 03:14:49;;;;;;;20.95;9.20;;;8.90;99.90;;;;;;4884032;28;89358;-30
2022/11/10 03:17:15;;;;;;;21.50;9.75;;;8.90;99.90;;;;;;4883056;28;90318;-30
2022/11/10 03:19:40;;;;;;;15.38;8.65;;;8.90;99.90;;;;;;4883162;28;89899;-33
2022/11/10 03:22:06;;;;;;;28.50;10.05;;;8.90;99.90;;;;;;4882668;28;89110;-33
2022/11/10 03:24:31;;;;;;;16.98;10.05;;;8.90;99.90;;;;;;4882347;28;90144;-33
2022/11/10 03:26:57;;;;;;;29.25;11.70;;;8.90;99.90;;;;;;4882321;28;90206;-31
2022/11/10 03:29:22;;;;;;;15.75;10.13;;;8.90;99.90;;;;;;4881830;28;89944;-33
2022/11/10 03:31:48;;;;;;;21.35;10.30;;;8.90;99.90;;;;;;4882638;28;90381;-32
2022/11/10 03:34:13;;;;;;;26.38;11.35;;;8.90;99.90;;;;;;4882296;28;89429;-31
2022/11/10 03:36:39;;;;;;;23.33;10.52;;;9.00;99.90;;;;;;4882507;28;90291;-32
2022/11/10 03:39:04;;;;;;;24.48;11.82;;;9.00;99.90;;;;;;4882430;28;89548;-32
2022/11/10 03:41:30;;;;;;;17.83;9.55;;;9.00;99.90;;;;;;4882777;28;88463;-34
2022/11/10 03:43:56;;;;;;;23.42;11.60;;;9.00;99.90;;;;;;4883010;28;90402;-31
2022/11/10 03:46:21;;;;;;;21.55;11.38;;;8.90;99.90;;;;;;4882005;28;90326;-33
2022/11/10 03:48:47;;;;;;;32.72;12.70;;;9.00;99.90;;;;;;4881946;28;90631;-31
2022/11/10 03:51:12;;;;;;;28.15;12.73;;;8.90;99.90;;;;;;4882296;28;90047;-32
2022/11/10 03:53:38;;;;;;;22.90;12.32;;;8.90;99.90;;;;;;4882371;28;88967;-32
2022/11/10 03:56:04;;;;;;;19.83;11.52;;;8.90;99.90;;;;;;4881659;28;90244;-32
2022/11/10 03:58:30;;;;;;;19.85;11.98;;;8.90;99.90;;;;;;4881849;28;89812;-32
2022/11/10 04:00:57;;;;;;;16.27;12.20;;;8.90;99.90;;;;;;4881995;28;89988;-31
2022/11/10 04:03:23;;;;;;;25.35;13.25;;;8.90;99.90;;;;;;4881664;28;88266;-30
2022/11/10 04:16:46;;;;;;;31.88;12.20;;;8.90;99.90;;;;;;4881135;28;90133;-31
2022/11/10 04:19:12;;;;;;;23.20;12.38;;;8.80;99.90;;;;;;4882032;28;90367;-32
2022/11/10 04:21:38;;;;;;;27.25;13.13;;;8.90;99.90;;;;;;4879884;28;90086;-33
2022/11/10 04:24:03;;;;;;;27.77;15.07;;;8.90;99.90;;;;;;4881876;28;88923;-33
2022/11/10 04:26:29;;;;;;;24.85;14.10;;;8.90;99.90;;;;;;4881997;28;91271;-31
2022/11/10 04:28:57;;;;;;;29.58;14.45;;;9.00;99.90;;;;;;4881063;28;89317;-32
2022/11/10 04:31:24;;;;;;;22.08;14.43;;;8.90;99.90;;;;;;4881795;28;89436;-33
2022/11/10 04:33:52;;;;;;;29.95;13.77;;;8.90;99.90;;;;;;4881782;28;88769;-32
2022/11/10 04:36:20;;;;;;;26.35;14.30;;;8.90;99.90;;;;;;4881682;28;90592;-33
2022/11/10 04:38:46;;;;;;;19.63;13.63;;;8.90;99.90;;;;;;4881031;28;89257;-32
2022/11/10 04:41:12;;;;;;;23.50;13.45;;;9.00;99.90;;;;;;4881669;28;90386;-33
2022/11/10 04:43:38;;;;;;;28.67;14.27;;;8.90;99.90;;;;;;4881673;28;88383;-30
2022/11/10 04:46:05;;;;;;;27.52;13.45;;;9.00;99.90;;;;;;4880563;28;91249;-31
2022/11/10 04:48:33;;;;;;;21.48;14.75;;;9.00;99.90;;;;;;4881497;28;89855;-35
2022/11/10 04:51:04;;;;;;;35.13;16.33;;;9.10;99.90;;;;;;4881599;28;89657;-31
2022/11/10 04:53:30;;;;;;;26.02;13.25;;;9.10;99.90;;;;;;4881242;28;88462;-33
2022/11/10 04:55:56;;;;;;;24.10;15.18;;;9.10;99.90;;;;;;4881469;28;90476;-32
2022/11/10 04:58:21;;;;;;;29.60;16.50;;;9.20;99.90;;;;;;4880690;28;89562;-32
2022/11/10 05:00:47;;;;;;;36.08;16.27;;;9.20;99.90;;;;;;4881227;28;89770;-33
2022/11/10 05:03:13;;;;;;;28.60;16.80;;;9.20;99.90;;;;;;4880573;28;90353;-31
2022/11/10 05:05:40;;;;;;;37.78;18.17;;;9.20;99.90;;;;;;4881832;28;90977;-34
2022/11/10 05:08:06;;;;;;;26.95;16.33;;;9.20;99.90;;;;;;4880442;28;89933;-32
2022/11/10 05:10:33;;;;;;;34.00;17.63;;;9.20;99.90;;;;;;4880463;28;89522;-31
2022/11/10 05:12:59;;;;;;;41.25;19.25;;;9.20;99.90;;;;;;4882191;28;87750;-33
2022/11/10 05:15:25;;;;;;;26.88;17.70;;;9.30;99.90;;;;;;4882841;28;90430;-32
2022/11/10 05:17:52;;;;;;;33.13;20.10;;;9.30;99.90;;;;;;4884487;28;89607;-33
2022/11/10 05:20:20;;;;;;;35.40;18.80;;;9.30;99.90;;;;;;4885197;28;89286;-32
2022/11/10 05:23:36;;;;;;;35.05;18.58;;;9.40;99.90;;;;;;4883498;28;88583;-31
2022/11/10 05:25:34;;;;;;;34.47;19.42;;;9.30;99.90;;;;;;4883855;28;91399;-32
2022/11/10 05:27:59;;;;;;;40.65;20.45;;;9.30;99.90;;;;;;4889960;28;89014;-33
2022/11/10 05:30:25;;;;;;;31.38;19.13;;;9.30;99.90;;;;;;4884930;28;91081;-33
2022/11/10 05:32:51;;;;;;;31.65;18.75;;;9.30;99.90;;;;;;4883840;28;89138;-32
2022/11/10 05:35:16;;;;;;;32.88;18.70;;;9.30;99.90;;;;;;4883651;28;89071;-32
2022/11/10 05:37:42;;;;;;;36.78;19.88;;;9.30;99.90;;;;;;4892150;28;91486;-31
2022/11/10 05:40:08;;;;;;;31.23;19.88;;;9.40;99.90;;;;;;4894533;28;89546;-31
2022/11/10 05:42:41;;;;;;;40.20;20.83;;;9.30;99.90;;;;;;4898131;28;88681;-31
2022/11/10 05:45:07;;;;;;;42.95;19.90;;;9.30;99.90;;;;;;4894654;28;90091;-33
2022/11/10 05:47:38;;;;;;;28.80;19.27;;;9.30;99.90;;;;;;4897746;28;90248;-31
2022/11/10 05:50:05;;;;;;;29.40;19.15;;;9.40;99.90;;;;;;4888704;28;88665;-33
2022/11/10 05:52:30;;;;;;;43.75;22.48;;;9.30;99.90;;;;;;4897945;28;90669;-31
2022/11/10 05:54:56;;;;;;;30.77;21.75;;;9.40;99.90;;;;;;4893729;28;88883;-31
2022/11/10 05:57:21;;;;;;;34.53;21.48;;;9.40;99.90;;;;;;4897344;28;90117;-30
2022/11/10 05:59:47;;;;;;;31.23;19.90;;;9.40;99.90;;;;;;4894877;28;89765;-31
2022/11/10 06:02:12;;;;;;;35.20;20.98;;;9.40;99.90;;;;;;4895816;28;88511;-33
2022/11/10 06:04:38;;;;;;;33.63;21.98;;;9.40;99.90;;;;;;4897647;28;90084;-31
2022/11/10 06:07:04;;;;;;;35.72;20.00;;;9.40;99.90;;;;;;4892707;28;89456;-32
2022/11/10 06:09:29;;;;;;;34.55;21.08;;;9.40;99.90;;;;;;4898249;28;89738;-31
2022/11/10 06:11:55;;;;;;;28.58;19.73;;;9.50;99.90;;;;;;4893812;28;89647;-32
2022/11/10 06:14:20;;;;;;;30.80;20.65;;;9.50;99.90;;;;;;4897428;28;89919;-30
2022/11/10 06:16:46;;;;;;;28.35;20.10;;;9.50;99.90;;;;;;4894872;28;90425;-30
2022/11/10 06:19:11;;;;;;;33.17;20.55;;;9.50;99.90;;;;;;4895373;28;90757;-30
2022/11/10 06:21:37;;;;;;;29.92;19.67;;;9.50;99.90;;;;;;4897667;28;89780;-33
2022/11/10 06:24:03;;;;;;;31.17;21.60;;;9.60;99.90;;;;;;4892382;28;89241;-32
2022/11/10 06:26:29;;;;;;;39.47;21.10;;;9.60;99.90;;;;;;4897809;28;90583;-32
2022/11/10 06:28:55;;;;;;;39.58;21.33;;;9.60;99.90;;;;;;4893399;28;89481;-31
2022/11/10 06:31:20;;;;;;;46.40;20.17;;;9.50;99.90;;;;;;4884352;28;88105;-32
2022/11/10 06:33:48;;;;;;;30.27;17.48;;;9.60;99.90;;;;;;4882948;28;90803;-33
2022/11/10 06:36:13;;;;;;;34.05;21.98;;;9.60;99.90;;;;;;4884173;28;89680;-33
2022/11/10 06:38:39;;;;;;;26.25;18.42;;;9.60;99.90;;;;;;4883362;28;90159;-36
2022/11/10 06:41:05;;;;;;;40.45;20.08;;;9.60;99.90;;;;;;4879547;28;89956;-31
2022/11/10 06:43:30;;;;;;;35.13;18.45;;;9.60;99.90;;;;;;4891701;28;90079;-33
2022/11/10 06:45:56;;;;;;;32.58;17.63;;;9.60;99.90;;;;;;4894065;28;90264;-33
2022/11/10 06:48:21;;;;;;;32.42;19.63;;;9.60;99.90;;;;;;4889337;28;89776;-33
2022/11/10 06:50:47;;;;;;;35.30;18.60;;;9.50;99.90;;;;;;4895015;28;88645;-32
2022/11/10 06:53:13;;;;;;;26.27;18.05;;;9.50;99.90;;;;;;4888277;28;90004;-33
2022/11/10 06:55:38;;;;;;;30.67;18.30;;;9.50;99.90;;;;;;4893059;28;90111;-31
2022/11/10 06:58:04;;;;;;;34.53;18.08;;;9.50;99.90;;;;;;4891570;28;90589;-33
2022/11/10 07:00:30;;;;;;;32.30;19.08;;;9.60;99.90;;;;;;4891215;28;88970;-33
2022/11/10 07:03:00;;;;;;;22.25;16.40;;;9.60;99.90;;;;;;4893083;28;90276;-34
2022/11/10 07:05:26;;;;;;;38.20;18.95;;;9.50;99.90;;;;;;4889355;28;90112;-31
2022/11/10 07:07:51;;;;;;;33.33;19.77;;;9.50;99.90;;;;;;4893790;28;89964;-33
2022/11/10 07:10:17;;;;;;;36.90;17.90;;;9.60;99.90;;;;;;4890036;28;90014;-30
2022/11/10 07:12:42;;;;;;;29.08;17.77;;;9.60;99.90;;;;;;4892059;28;89321;-31
2022/11/10 07:15:08;;;;;;;31.70;17.20;;;9.70;99.90;;;;;;4892329;28;89739;-31
2022/11/10 07:17:39;;;;;;;29.50;16.80;;;9.70;99.90;;;;;;4890912;28;89199;-33
2022/11/10 07:20:06;;;;;;;30.40;17.58;;;9.70;99.90;;;;;;4893038;28;88665;-33
2022/11/10 07:22:31;;;;;;;29.45;17.90;;;9.70;99.90;;;;;;4889051;28;90706;-33
2022/11/10 07:24:57;;;;;;;32.55;16.60;;;9.70;99.90;;;;;;4886430;28;90028;-32
2022/11/10 07:27:23;;;;;;;33.95;19.23;;;9.80;99.90;;;;;;4879274;28;90674;-33
2022/11/10 07:29:48;;;;;;;29.55;17.25;;;9.80;99.90;;;;;;4881221;28;90536;-32
2022/11/10 07:32:14;;;;;;;31.38;17.92;;;9.90;99.90;;;;;;4880806;28;90132;-32
2022/11/10 07:34:39;;;;;;;28.10;17.63;;;10.00;99.90;;;;;;4880097;28;89858;-34
2022/11/10 07:37:05;;;;;;;21.13;15.45;;;10.00;99.90;;;;;;4879865;28;89510;-32
2022/11/10 07:39:30;;;;;;;26.13;17.33;;;10.00;99.90;;;;;;4880089;28;88199;-32
2022/11/10 07:41:56;;;;;;;33.05;18.25;;;10.10;99.90;;;;;;4881633;28;90310;-31
2022/11/10 07:44:23;;;;;;;37.92;19.02;;;10.20;99.90;;;;;;4880496;28;90871;-31
2022/11/10 07:46:48;;;;;;;22.92;16.88;;;10.30;99.90;;;;;;4880727;28;88767;-33
2022/11/10 07:49:14;;;;;;;25.92;17.98;;;10.30;99.90;;;;;;4880621;28;89360;-31
2022/11/10 07:51:41;;;;;;;30.77;17.35;;;10.30;99.90;;;;;;4879491;28;90384;-34
2022/11/10 07:54:07;;;;;;;35.97;18.33;;;10.40;99.90;;;;;;4880973;28;90063;-31
2022/11/10 07:56:32;;;;;;;33.65;17.42;;;10.30;99.90;;;;;;4880256;28;90633;-32
2022/11/10 07:58:58;;;;;;;31.27;17.50;;;10.40;99.90;;;;;;4880131;28;89793;-33
2022/11/10 08:01:24;;;;;;;34.42;18.58;;;10.40;99.90;;;;;;4880192;28;90167;-33
2022/11/10 08:03:49;;;;;;;37.28;17.63;;;10.40;99.90;;;;;;4879628;28;88940;-31
2022/11/10 08:06:15;;;;;;;27.20;17.00;;;10.40;99.90;;;;;;4880428;28;89743;-32
2022/11/10 08:08:40;;;;;;;33.75;17.50;;;10.40;99.90;;;;;;4878454;28;88090;-32
2022/11/10 08:11:06;;;;;;;33.08;17.20;;;10.40;99.90;;;;;;4880236;28;90476;-32
2022/11/10 08:13:31;;;;;;;26.63;15.00;;;10.40;99.90;;;;;;4879099;28;90943;-30
2022/11/10 08:15:58;;;;;;;29.30;15.43;;;10.50;99.90;;;;;;4879629;28;90028;-32
2022/11/10 08:18:24;;;;;;;28.95;17.90;;;10.50;99.90;;;;;;4880035;28;90419;-32
2022/11/10 08:20:49;;;;;;;21.02;15.40;;;10.50;99.90;;;;;;4879187;28;89971;-34
2022/11/10 08:23:16;;;;;;;26.52;15.98;;;10.50;99.90;;;;;;4878787;28;89401;-33
2022/11/10 08:25:42;;;;;;;23.63;15.63;;;10.50;99.90;;;;;;4878914;28;90526;-32
2022/11/10 08:28:14;;;;;;;29.13;17.02;;;10.50;99.90;;;;;;4878857;28;89753;-30
2022/11/10 08:30:41;;;;;;;32.10;16.17;;;10.60;99.90;;;;;;4878341;28;90303;-34
2022/11/10 08:33:10;;;;;;;23.93;13.87;;;10.60;99.90;;;;;;4881307;28;89726;-32
2022/11/10 08:35:38;;;;;;;28.63;16.38;;;10.70;99.90;;;;;;4894320;28;90090;-33
2022/11/10 08:38:12;;;;;;;;;;;10.60;99.90;;;;;;4890774;28;89184;-32
2022/11/10 08:40:39;;;;;;;34.65;15.27;;;10.60;99.90;;;;;;4896327;28;90246;-33
2022/11/10 08:43:06;;;;;;;23.45;15.20;;;10.60;99.90;;;;;;4880397;28;91225;-31
2022/11/10 08:45:33;;;;;;;25.95;14.90;;;10.70;99.90;;;;;;4878878;28;90275;-34
2022/11/10 08:48:08;;;;;;;25.27;14.25;;;10.80;99.90;;;;;;4878237;28;89442;-34
2022/11/10 08:50:34;;;;;;;23.45;15.65;;;10.90;99.90;;;;;;4882135;28;90561;-34
2022/11/10 08:53:01;;;;;;;25.10;14.55;;;11.10;99.90;;;;;;4880035;28;90220;-33
2022/11/10 08:55:27;;;;;;;25.90;15.25;;;11.20;99.90;;;;;;4880546;28;90566;-33
2022/11/10 08:57:58;;;;;;;27.27;14.73;;;11.30;99.90;;;;;;4879948;28;88278;-32
2022/11/10 09:00:24;;;;;;;26.95;14.10;;;11.50;99.90;;;;;;4880715;28;90259;-32
2022/11/10 09:02:49;;;;;;;24.90;13.85;;;11.60;99.90;;;;;;4880574;28;89527;-33
2022/11/10 09:05:15;;;;;;;29.52;13.95;;;11.60;99.90;;;;;;4880597;28;89761;-33
2022/11/10 09:07:45;;;;;;;26.45;14.32;;;11.70;99.90;;;;;;4908950;23;89491;-35
2022/11/10 09:10:11;;;;;;;19.27;13.45;;;11.80;99.90;;;;;;4862261;28;90072;-35
2022/11/10 09:12:37;;;;;;;22.25;12.18;;;11.80;99.90;;;;;;4861193;28;89347;-33
2022/11/10 09:15:03;;;;;;;22.30;12.98;;;11.80;99.90;;;;;;4861474;28;89564;-33
2022/11/10 09:17:30;;;;;;;23.30;12.95;;;11.80;99.90;;;;;;4861541;28;88757;-33
2022/11/10 09:19:56;;;;;;;21.63;12.73;;;11.90;99.90;;;;;;4861343;28;91010;-33
2022/11/10 09:22:21;;;;;;;24.45;11.85;;;11.90;99.90;;;;;;4861318;28;89728;-33
2022/11/10 09:24:47;;;;;;;18.20;11.73;;;11.90;99.90;;;;;;4861027;28;89820;-33
2022/11/10 09:27:12;;;;;;;22.10;12.25;;;11.90;99.90;;;;;;4861742;28;89168;-32
2022/11/10 09:29:38;;;;;;;18.77;11.05;;;12.00;99.90;;;;;;4860953;28;90214;-34
2022/11/10 09:32:04;;;;;;;19.48;11.40;;;12.10;99.90;;;;;;4859322;28;90728;-35
2022/11/10 09:34:29;;;;;;;17.83;10.77;;;12.10;99.90;;;;;;4859933;28;90050;-35
2022/11/10 09:36:55;;;;;;;27.25;11.73;;;12.10;99.90;;;;;;4860232;28;89059;-32
2022/11/10 09:39:20;;;;;;;24.90;10.40;;;12.10;99.90;;;;;;4859235;28;90225;-35
2022/11/10 09:41:46;;;;;;;26.08;10.38;;;12.10;99.90;;;;;;4860473;28;89692;-33
2022/11/10 09:44:17;;;;;;;19.58;9.95;;;12.20;99.90;;;;;;4859639;28;89199;-34
2022/11/10 09:46:57;;;;;;;25.33;9.95;;;12.20;99.90;;;;;;4848073;28;88783;-35
2022/11/10 09:49:34;;;;;;;18.20;8.82;;;12.30;99.90;;;;;;4860043;28;90330;-34
2022/11/10 09:52:01;;;;;;;21.73;8.98;;;12.30;99.90;;;;;;4860009;28;91109;-34
2022/11/10 09:54:29;;;;;;;24.23;10.65;;;12.30;99.90;;;;;;4860636;28;89332;-34
2022/11/10 09:56:58;;;;;;;;;;;12.40;99.90;;;;;;4860518;28;88886;-34
2022/11/10 09:59:31;;;;;;;32.80;11.80;;;12.50;99.90;;;;;;4861976;28;89628;-33
2022/11/10 10:02:21;;;;;;;20.55;9.45;;;12.50;99.90;;;;;;4865047;28;89298;-35
2022/11/10 10:05:18;;;;;;;18.42;9.00;;;12.60;99.90;;;;;;4867629;28;89598;-34
2022/11/10 10:08:07;;;;;;;17.05;8.55;;;12.60;99.90;;;;;;4863342;28;87601;-33
2022/11/10 10:10:41;;;;;;;19.33;8.27;;;12.70;99.90;;;;;;4863595;28;90302;-34
2022/11/10 10:13:26;;;;;;;10.18;7.13;;;12.70;99.90;;;;;;4863710;28;89262;-33
2022/11/10 10:16:18;;;;;;;24.50;8.35;;;12.70;99.90;;;;;;4863443;28;89441;-34
2022/11/10 10:18:47;;;;;;;20.40;8.02;;;12.80;99.90;;;;;;4863623;28;89676;-32
2022/11/10 10:21:49;;;;;;;13.32;6.25;;;12.80;99.90;;;;;;4864163;28;89590;-34
2022/11/10 10:24:17;;;;;;;20.63;7.60;;;12.90;99.90;;;;;;4862411;28;90758;-35
2022/11/10 10:26:47;;;;;;;;;;;13.00;99.90;;;;;;4863149;28;91203;-34
2022/11/10 10:29:18;;;;;;;12.88;6.68;;;13.00;99.90;;;;;;4864639;28;88926;-33
2022/11/10 10:31:48;;;;;;;19.83;7.00;;;13.00;99.90;;;;;;4862937;28;90285;-35
2022/11/10 10:34:33;;;;;;;15.60;6.88;;;13.00;99.90;;;;;;4863164;28;89848;-34
2022/11/10 10:36:59;;;;;;;24.70;7.68;;;13.10;99.90;;;;;;4862920;28;90085;-35
2022/11/10 10:39:29;;;;;;;21.90;7.78;;;13.20;99.90;;;;;;4863605;28;88826;-33
2022/11/10 10:41:55;;;;;;;22.50;7.55;;;13.20;99.90;;;;;;4863473;28;90919;-33
2022/11/10 10:44:21;;;;;;;16.25;6.95;;;13.30;99.90;;;;;;4862864;28;89707;-32
2022/11/10 10:46:58;;;;;;;20.60;6.47;;;13.20;99.90;;;;;;4863274;28;90017;-32
2022/11/10 10:49:35;;;;;;;18.05;7.63;;;13.30;99.90;;;;;;4862501;28;90280;-32
2022/11/10 10:52:12;;;;;;;24.10;7.05;;;13.40;99.90;;;;;;4862853;28;89256;-33
2022/11/10 10:54:38;;;;;;;12.98;7.38;;;13.40;99.90;;;;;;4863014;28;89337;-32
2022/11/10 10:57:23;;;;;;;18.35;7.55;;;13.40;99.90;;;;;;4863525;28;89498;-34
2022/11/10 10:59:50;;;;;;;14.68;6.75;;;13.40;99.90;;;;;;4862441;28;89711;-33
2022/11/10 11:02:26;;;;;;;17.08;6.68;;;13.40;99.90;;;;;;4861919;28;91328;-36
2022/11/10 11:05:17;;;;;;;12.40;6.65;;;13.40;99.90;;;;;;4862435;28;90140;-33
2022/11/10 11:07:58;;;;;;;15.65;7.03;;;13.40;99.90;;;;;;4861652;28;89567;-32
2022/11/10 11:10:34;;;;;;;13.85;5.20;;;13.40;99.90;;;;;;4862359;28;87665;-34
2022/11/10 11:13:20;;;;;;;16.23;7.47;;;13.30;99.90;;;;;;4861756;28;89122;-35
2022/11/10 11:16:12;;;;;;;13.52;6.30;;;13.30;99.90;;;;;;4861776;28;90787;-33
2022/11/10 11:18:39;;;;;;;10.75;5.15;;;13.40;99.90;;;;;;4859959;28;91039;-33
2022/11/10 11:21:13;;;;;;;20.48;8.30;;;13.40;99.90;;;;;;4863246;28;89860;-32
2022/11/10 11:24:09;;;;;;;15.57;7.28;;;13.40;99.90;;;;;;4862654;28;90882;-32
2022/11/10 11:26:38;;;;;;;16.58;6.30;;;13.50;99.90;;;;;;4861849;28;87999;-31
2022/11/10 11:29:22;;;;;;;23.40;7.43;;;13.50;99.90;;;;;;4861287;28;89608;-33
2022/11/10 11:32:09;;;;;;;14.90;7.70;;;13.50;99.90;;;;;;4862315;28;89146;-34
2022/11/10 11:34:42;;;;;;;25.23;7.68;;;13.60;99.90;;;;;;4862823;28;90668;-33
2022/11/10 11:37:37;;;;;;;17.00;5.75;;;13.70;99.90;;;;;;4862415;28;89473;-32
2022/11/10 11:40:21;;;;;;;15.73;7.72;;;13.60;99.90;;;;;;4862151;28;89967;-32
2022/11/10 11:43:02;;;;;;;17.83;6.65;;;13.70;99.90;;;;;;4861056;28;89328;-32
2022/11/10 11:45:48;;;;;;;16.20;7.55;;;13.70;99.90;;;;;;4862294;28;90201;-33
2022/11/10 11:48:14;;;;;;;9.02;6.25;;;13.70;99.90;;;;;;4861176;28;88882;-33
2022/11/10 11:50:49;;;;;;;16.45;6.50;;;13.60;99.90;;;;;;4861899;28;89102;-33
2022/11/10 11:53:26;;;;;;;16.30;7.43;;;13.60;99.90;;;;;;4862052;28;89553;-31
2022/11/10 11:56:10;;;;;;;24.98;7.35;;;13.70;99.90;;;;;;4861467;28;90544;-32
2022/11/10 11:58:50;;;;;;;14.32;6.18;;;13.70;99.90;;;;;;4861896;28;89757;-33
2022/11/10 12:01:31;;;;;;;13.85;5.90;;;13.70;99.90;;;;;;4861515;28;89570;-33
2022/11/10 12:04:32;;;;;;;23.08;6.28;;;13.80;99.90;;;;;;4859549;28;88926;-32
2022/11/10 12:07:06;;;;;;;13.73;5.65;;;13.80;99.90;;;;;;4862358;28;90238;-32
2022/11/10 12:09:39;;;;;;;9.68;5.25;;;13.80;99.90;;;;;;4876596;28;91573;-35
2022/11/10 12:12:32;;;;;;;9.85;5.53;;;13.80;99.90;;;;;;4870560;28;90015;-32
2022/11/10 12:15:37;;;;;;;11.57;5.97;;;13.90;99.90;;;;;;4861368;28;88869;-32
2022/11/10 12:18:21;;;;;;;19.30;6.30;;;14.00;99.90;;;;;;4866918;28;89660;-31
2022/11/10 12:21:05;;;;;;;10.63;4.82;;;14.00;99.90;;;;;;4868538;28;90281;-34
2022/11/10 12:24:18;;;;;;;13.38;5.75;;;14.10;99.90;;;;;;4869271;28;89812;-33
2022/11/10 12:26:49;;;;;;;11.32;4.70;;;14.10;99.90;;;;;;4838125;28;87848;-33
2022/11/10 12:29:44;;;;;;;13.63;5.63;;;14.10;99.90;;;;;;4867081;28;90542;-33
2022/11/10 12:32:42;;;;;;;13.35;5.43;;;14.10;99.90;;;;;;4856847;28;90670;-31
2022/11/10 12:35:19;;;;;;;16.13;5.47;;;14.10;99.90;;;;;;4851213;28;89783;-33
2022/11/10 12:38:20;;;;;;;17.23;5.82;;;14.20;99.90;;;;;;4861144;28;90956;-33
2022/11/10 12:40:53;;;;;;;11.98;5.88;;;14.10;99.90;;;;;;4860817;28;89161;-32
2022/11/10 12:43:46;;;;;;;10.45;4.50;;;14.20;99.90;;;;;;4849196;28;90339;-32
2022/11/10 12:46:12;;;;;;;11.25;4.50;;;14.20;99.90;;;;;;4860968;28;89993;-34
2022/11/10 12:49:01;;;;;;;13.38;4.80;;;14.20;99.90;;;;;;4859939;28;88393;-33
2022/11/10 12:51:44;;;;;;;19.77;5.28;;;14.20;99.90;;;;;;4861248;28;90269;-33
2022/11/10 12:54:13;;;;;;;10.55;4.03;;;14.20;99.90;;;;;;4860485;28;89350;-33
2022/11/10 12:56:46;;;;;;;29.80;5.50;;;14.20;99.90;;;;;;4860926;28;89331;-31
2022/11/10 12:59:32;;;;;;;10.50;4.15;;;14.30;99.90;;;;;;4861007;28;89433;-34
2022/11/10 13:02:05;;;;;;;15.35;3.90;;;14.30;99.90;;;;;;4860682;28;90509;-33
2022/11/10 13:04:32;;;;;;;17.45;4.40;;;14.30;99.90;;;;;;4860215;28;89103;-33
2022/11/10 13:07:04;;;;;;;11.45;3.72;;;14.30;99.90;;;;;;4860167;28;90566;-32